Time;durP1;ratioP1;P1;durP2;ratioP2;P2;SDS_P1;SDS_P2;PMS_P1;PMS_P2;Temp;Humidity;BMP_temperature;BMP_pressure;BME280_temperature;BME280_humidity;BME280_pressure;Samples;Min_cycle;Max_cycle;Signal;HPM_P1;HPM_P2
2022/08/25 00:02:19;;;;;;;3.50;2.00;;;;;;;;;;4982199;28;20042;-61
2022/08/25 00:04:44;;;;;;;3.20;2.08;;;;;;;;;;4980586;28;20065;-62
2022/08/25 00:07:11;;;;;;;3.28;1.80;;;;;;;;;;4980908;28;20679;-62
2022/08/25 00:09:36;;;;;;;2.28;1.70;;;;;;;;;;4982227;28;20653;-63
2022/08/25 00:12:03;;;;;;;4.25;2.28;;;;;;;;;;4982199;28;20122;-64
2022/08/25 00:14:32;;;;;;;4.38;1.90;;;;;;;;;;4983222;28;20628;-63
2022/08/25 00:16:57;;;;;;;6.25;2.08;;;;;;;;;;4978696;28;20050;-62
2022/08/25 00:19:26;;;;;;;4.15;1.58;;;;;;;;;;4980068;28;20642;-62
2022/08/25 00:21:51;;;;;;;2.35;1.77;;;;;;;;;;4979030;28;20104;-61
2022/08/25 00:24:18;;;;;;;3.20;1.80;;;;;;;;;;4981737;28;20748;-63
2022/08/25 00:26:47;;;;;;;2.78;1.88;;;;;;;;;;4981541;28;20046;-63
2022/08/25 00:29:13;;;;;;;3.55;1.73;;;;;;;;;;4982629;28;20050;-62
2022/08/25 00:31:39;;;;;;;3.75;1.63;;;;;;;;;;4977983;28;20061;-61
2022/08/25 00:34:17;;;;;;;2.72;1.70;;;;;;;;;;4980071;28;20039;-61
2022/08/25 00:36:43;;;;;;;5.07;1.77;;;;;;;;;;4977504;28;20125;-63
2022/08/25 00:39:09;;;;;;;2.78;1.83;;;;;;;;;;4978796;28;20047;-63
2022/08/25 00:41:35;;;;;;;2.85;1.50;;;;;;;;;;4984189;28;20574;-62
2022/08/25 00:44:04;;;;;;;3.25;1.60;;;;;;;;;;4984584;28;20077;-62
2022/08/25 00:46:37;;;;;;;5.55;1.55;;;;;;;;;;4980220;28;20034;-63
2022/08/25 00:49:11;;;;;;;2.83;1.80;;;;;;;;;;4977678;28;20054;-63
2022/08/25 00:51:50;;;;;;;3.95;2.05;;;;;;;;;;4981043;28;20097;-64
2022/08/25 00:54:26;;;;;;;5.93;2.00;;;;;;;;;;4976811;28;20054;-61
2022/08/25 00:56:52;;;;;;;2.95;2.00;;;;;;;;;;4979922;28;20720;-61
2022/08/25 00:59:20;;;;;;;2.33;1.67;;;;;;;;;;4980341;28;20054;-63
2022/08/25 01:01:48;;;;;;;3.70;1.50;;;;;;;;;;4979285;28;20053;-59
2022/08/25 01:04:13;;;;;;;2.53;1.80;;;;;;;;;;4982568;28;20067;-59
2022/08/25 01:06:44;;;;;;;6.15;1.90;;;;;;;;;;4983881;28;20074;-59
2022/08/25 01:09:12;;;;;;;4.38;1.92;;;;;;;;;;4984156;28;20052;-61
2022/08/25 01:11:39;;;;;;;4.03;1.60;;;;;;;;;;4979068;28;20057;-62
2022/08/25 01:14:06;;;;;;;2.55;1.85;;;;;;;;;;4985098;28;21254;-61
2022/08/25 01:16:34;;;;;;;4.32;1.73;;;;;;;;;;4984067;28;20125;-61
2022/08/25 01:18:59;;;;;;;9.88;2.20;;;;;;;;;;4984509;28;20089;-60
2022/08/25 01:21:27;;;;;;;2.95;1.80;;;;;;;;;;4984365;28;20065;-60
2022/08/25 01:23:57;;;;;;;5.97;2.20;;;;;;;;;;4982605;28;20046;-60
2022/08/25 01:26:30;;;;;;;3.65;2.17;;;;;;;;;;4980712;28;20524;-60
2022/08/25 01:31:42;;;;;;;2.58;1.90;;;;;;;;;;4978182;28;20114;-60
2022/08/25 01:34:11;;;;;;;2.10;1.75;;;;;;;;;;4984821;28;20043;-60
2022/08/25 01:36:37;;;;;;;2.85;1.80;;;;;;;;;;4975969;28;20050;-60
2022/08/25 01:39:03;;;;;;;5.63;1.77;;;;;;;;;;4980725;28;20050;-60
2022/08/25 01:41:29;;;;;;;4.38;2.35;;;;;;;;;;4986633;28;20054;-60
2022/08/25 01:43:55;;;;;;;6.25;1.90;;;;;;;;;;4985389;28;20040;-60
2022/08/25 01:46:21;;;;;;;3.50;2.00;;;;;;;;;;4986628;28;20070;-60
2022/08/25 01:48:46;;;;;;;3.42;1.90;;;;;;;;;;4983557;28;20063;-60
2022/08/25 01:51:15;;;;;;;4.25;1.80;;;;;;;;;;4989393;28;20051;-61
2022/08/25 01:53:42;;;;;;;3.53;1.75;;;;;;;;;;4986982;28;20042;-60
2022/08/25 01:56:10;;;;;;;3.88;1.77;;;;;;;;;;4986469;28;20037;-60
2022/08/25 01:58:39;;;;;;;3.85;1.80;;;;;;;;;;4984879;28;20513;-59
2022/08/25 02:01:08;;;;;;;3.33;2.03;;;;;;;;;;4981200;28;20385;-60
2022/08/25 02:03:37;;;;;;;4.80;2.00;;;;;;;;;;4978988;28;20078;-61
2022/08/25 02:06:03;;;;;;;3.55;1.70;;;;;;;;;;4982088;28;20101;-61
2022/08/25 02:08:28;;;;;;;2.35;1.73;;;;;;;;;;4979192;28;20050;-61
2022/08/25 02:10:54;;;;;;;4.65;1.67;;;;;;;;;;4984623;28;20114;-59
2022/08/25 02:13:20;;;;;;;3.53;1.70;;;;;;;;;;4977857;28;20621;-61
2022/08/25 02:15:51;;;;;;;2.88;1.60;;;;;;;;;;4982893;28;20046;-61
2022/08/25 02:18:18;;;;;;;2.53;1.65;;;;;;;;;;4981952;28;20120;-61
2022/08/25 02:20:43;;;;;;;4.05;1.95;;;;;;;;;;4981334;28;20054;-60
2022/08/25 02:23:09;;;;;;;2.13;1.63;;;;;;;;;;4982715;28;20035;-61
2022/08/25 02:25:36;;;;;;;2.75;1.70;;;;;;;;;;4980042;28;20033;-61
2022/08/25 02:28:02;;;;;;;3.30;1.90;;;;;;;;;;4980238;28;20062;-58
2022/08/25 02:30:27;;;;;;;2.22;1.73;;;;;;;;;;4982424;28;20050;-59
2022/08/25 02:32:53;;;;;;;3.50;2.00;;;;;;;;;;4981211;28;20046;-61
2022/08/25 02:35:18;;;;;;;2.53;1.98;;;;;;;;;;4986186;28;20058;-59
2022/08/25 02:37:44;;;;;;;4.57;1.92;;;;;;;;;;4987095;28;20030;-60
2022/08/25 02:40:10;;;;;;;5.85;1.77;;;;;;;;;;4980375;28;20077;-60
2022/08/25 02:42:35;;;;;;;2.42;1.80;;;;;;;;;;4984933;28;20050;-60
2022/08/25 02:45:01;;;;;;;2.28;1.60;;;;;;;;;;4982454;28;20485;-60
2022/08/25 02:47:26;;;;;;;3.30;1.80;;;;;;;;;;4982160;28;20073;-60
2022/08/25 02:49:52;;;;;;;2.40;1.90;;;;;;;;;;4985604;28;20476;-60
2022/08/25 02:52:17;;;;;;;7.28;2.10;;;;;;;;;;4984619;28;20116;-59
2022/08/25 02:54:43;;;;;;;6.32;2.20;;;;;;;;;;4981274;28;20046;-60
2022/08/25 02:57:10;;;;;;;3.53;1.65;;;;;;;;;;4981623;28;20047;-61
2022/08/25 02:59:36;;;;;;;3.03;1.95;;;;;;;;;;4982424;28;20191;-61
2022/08/25 03:02:02;;;;;;;2.53;1.98;;;;;;;;;;4982860;28;20042;-60
2022/08/25 03:04:28;;;;;;;2.15;1.95;;;;;;;;;;4983187;28;20092;-60
2022/08/25 03:06:54;;;;;;;3.22;1.83;;;;;;;;;;4983017;28;20038;-60
2022/08/25 03:09:19;;;;;;;4.95;2.17;;;;;;;;;;4983022;28;20133;-61
2022/08/25 03:11:46;;;;;;;2.30;2.05;;;;;;;;;;4980287;28;20085;-62
2022/08/25 03:14:12;;;;;;;3.40;2.03;;;;;;;;;;4982825;28;20034;-60
2022/08/25 03:16:37;;;;;;;4.85;2.20;;;;;;;;;;4983411;28;20062;-61
2022/08/25 03:19:03;;;;;;;5.43;2.40;;;;;;;;;;4981354;28;20054;-60
2022/08/25 03:21:29;;;;;;;4.40;2.33;;;;;;;;;;4979340;28;20134;-61
2022/08/25 03:23:55;;;;;;;4.15;2.50;;;;;;;;;;4986475;28;20138;-61
2022/08/25 03:29:06;;;;;;;4.75;2.20;;;;;;;;;;4980757;28;20566;-61
2022/08/25 03:31:33;;;;;;;3.70;2.08;;;;;;;;;;4984751;28;20034;-61
2022/08/25 03:33:59;;;;;;;4.38;2.42;;;;;;;;;;4980787;28;20042;-60
2022/08/25 03:36:26;;;;;;;4.07;2.85;;;;;;;;;;4979636;28;20042;-60
2022/08/25 03:38:52;;;;;;;5.18;2.40;;;;;;;;;;4980437;28;20061;-60
2022/08/25 03:41:24;;;;;;;4.43;2.50;;;;;;;;;;4981773;28;20070;-60
2022/08/25 03:43:50;;;;;;;5.25;2.20;;;;;;;;;;4980390;28;20401;-60
2022/08/25 03:46:21;;;;;;;3.40;2.15;;;;;;;;;;4981886;28;20046;-60
2022/08/25 03:48:47;;;;;;;4.00;2.20;;;;;;;;;;4981802;28;20075;-60
2022/08/25 03:51:25;;;;;;;5.40;2.35;;;;;;;;;;4982959;28;20133;-61
2022/08/25 03:53:51;;;;;;;3.83;2.40;;;;;;;;;;4981463;28;20089;-61
2022/08/25 03:56:17;;;;;;;2.92;2.33;;;;;;;;;;4981050;28;20031;-61
2022/08/25 03:58:42;;;;;;;3.58;2.53;;;;;;;;;;4983174;28;20049;-59
2022/08/25 04:01:08;;;;;;;4.70;2.67;;;;;;;;;;4982156;28;20137;-60
2022/08/25 04:03:34;;;;;;;9.13;2.72;;;;;;;;;;4981300;28;20196;-60
2022/08/25 04:06:01;;;;;;;5.53;3.00;;;;;;;;;;4984446;28;20057;-59
2022/08/25 04:08:26;;;;;;;6.07;3.38;;;;;;;;;;4982588;28;20046;-61
2022/08/25 04:10:51;;;;;;;4.20;3.00;;;;;;;;;;4980319;28;20672;-60
2022/08/25 04:13:18;;;;;;;3.63;2.95;;;;;;;;;;4977530;28;20058;-59
2022/08/25 04:15:43;;;;;;;6.50;3.00;;;;;;;;;;4984881;28;20041;-58
2022/08/25 04:18:10;;;;;;;4.22;3.03;;;;;;;;;;4984062;28;21517;-61
2022/08/25 04:20:36;;;;;;;5.70;3.03;;;;;;;;;;4980113;28;20069;-61
2022/08/25 04:23:02;;;;;;;3.10;2.67;;;;;;;;;;4978585;28;20038;-59
2022/08/25 04:25:27;;;;;;;3.60;2.83;;;;;;;;;;4981881;28;20053;-59
2022/08/25 04:27:54;;;;;;;6.47;3.17;;;;;;;;;;4983202;28;20136;-59
2022/08/25 04:30:20;;;;;;;8.02;3.40;;;;;;;;;;4985433;28;20579;-57
2022/08/25 04:32:47;;;;;;;5.07;3.28;;;;;;;;;;4981991;28;20124;-60
2022/08/25 04:35:13;;;;;;;4.75;3.10;;;;;;;;;;4980038;28;20121;-59
2022/08/25 04:37:38;;;;;;;9.00;3.33;;;;;;;;;;4979893;28;20535;-59
2022/08/25 04:40:04;;;;;;;8.68;3.17;;;;;;;;;;4979935;28;20492;-59
2022/08/25 04:42:30;;;;;;;5.88;3.13;;;;;;;;;;4983634;28;20046;-60
2022/08/25 04:44:56;;;;;;;7.88;3.17;;;;;;;;;;4979623;28;20042;-60
2022/08/25 04:47:22;;;;;;;5.78;3.45;;;;;;;;;;4980071;28;20124;-59
2022/08/25 04:49:47;;;;;;;6.78;3.58;;;;;;;;;;4981790;28;20026;-60
2022/08/25 04:52:13;;;;;;;7.72;3.65;;;;;;;;;;4982028;28;20053;-60
2022/08/25 04:54:39;;;;;;;4.68;3.10;;;;;;;;;;4983973;28;20038;-59
2022/08/25 04:57:05;;;;;;;6.57;3.47;;;;;;;;;;4979090;28;20046;-61
2022/08/25 04:59:31;;;;;;;7.13;3.70;;;;;;;;;;4978642;28;20053;-58
2022/08/25 05:02:00;;;;;;;7.38;3.97;;;;;;;;;;4979960;28;20404;-61
2022/08/25 05:04:26;;;;;;;7.68;3.90;;;;;;;;;;4978596;28;20073;-61
2022/08/25 05:06:52;;;;;;;6.07;4.00;;;;;;;;;;4981291;28;20123;-60
2022/08/25 05:09:17;;;;;;;6.32;3.88;;;;;;;;;;4985718;28;20128;-60
2022/08/25 05:11:42;;;;;;;7.10;4.07;;;;;;;;;;4981467;28;20051;-72
2022/08/25 05:14:10;;;;;;;5.45;3.85;;;;;;;;;;4981091;28;20069;-73
2022/08/25 05:16:36;;;;;;;8.05;3.90;;;;;;;;;;4981247;28;20055;-73
2022/08/25 05:19:03;;;;;;;8.57;4.20;;;;;;;;;;4987679;28;20046;-72
2022/08/25 05:21:29;;;;;;;5.47;3.83;;;;;;;;;;4985340;28;20100;-74
2022/08/25 05:23:58;;;;;;;7.55;4.13;;;;;;;;;;4981642;28;20034;-73
2022/08/25 05:26:28;;;;;;;5.53;3.95;;;;;;;;;;4988681;28;20042;-73
2022/08/25 05:28:54;;;;;;;7.60;4.10;;;;;;;;;;4983848;28;20042;-73
2022/08/25 05:31:21;;;;;;;6.63;3.80;;;;;;;;;;4983651;28;20065;-72
2022/08/25 05:33:47;;;;;;;5.25;4.20;;;;;;;;;;4983944;28;20408;-72
2022/08/25 05:36:14;;;;;;;6.63;4.20;;;;;;;;;;4982451;28;20046;-73
2022/08/25 05:38:40;;;;;;;6.15;3.80;;;;;;;;;;4985277;28;20508;-73
2022/08/25 05:41:12;;;;;;;8.05;4.25;;;;;;;;;;4986826;28;20041;-73
2022/08/25 05:43:39;;;;;;;5.78;4.22;;;;;;;;;;4986402;28;20456;-74
2022/08/25 05:46:05;;;;;;;7.07;4.15;;;;;;;;;;4982940;28;20054;-72
2022/08/25 05:48:31;;;;;;;10.35;4.30;;;;;;;;;;4985382;28;20034;-72
2022/08/25 05:51:03;;;;;;;6.90;4.10;;;;;;;;;;4986099;28;20053;-73
2022/08/25 05:53:30;;;;;;;9.95;4.28;;;;;;;;;;4986154;28;20109;-73
2022/08/25 05:55:57;;;;;;;8.43;4.10;;;;;;;;;;4985528;28;20033;-74
2022/08/25 05:58:24;;;;;;;9.38;4.00;;;;;;;;;;4985087;28;20117;-74
2022/08/25 06:00:50;;;;;;;8.65;4.25;;;;;;;;;;4983644;28;20054;-72
2022/08/25 06:03:16;;;;;;;12.48;4.20;;;;;;;;;;4987391;28;20259;-73
2022/08/25 06:05:41;;;;;;;10.27;4.07;;;;;;;;;;4980327;28;20105;-73
2022/08/25 06:08:07;;;;;;;8.77;3.95;;;;;;;;;;4983432;28;20046;-73
2022/08/25 06:10:33;;;;;;;7.55;4.30;;;;;;;;;;4985162;28;20038;-73
2022/08/25 06:12:59;;;;;;;7.80;4.57;;;;;;;;;;4986002;28;20042;-74
2022/08/25 06:15:25;;;;;;;10.80;4.68;;;;;;;;;;4983910;28;20494;-73
2022/08/25 06:17:51;;;;;;;12.57;4.38;;;;;;;;;;4984230;28;20477;-68
2022/08/25 06:20:19;;;;;;;8.38;4.70;;;;;;;;;;4983662;28;20081;-68
2022/08/25 06:22:46;;;;;;;11.25;5.10;;;;;;;;;;4984384;28;20046;-68
2022/08/25 06:25:13;;;;;;;14.90;5.30;;;;;;;;;;4982994;28;20420;-68
2022/08/25 06:27:39;;;;;;;9.70;4.90;;;;;;;;;;4984097;28;20057;-67
2022/08/25 06:30:08;;;;;;;8.60;5.03;;;;;;;;;;4979322;28;20403;-67
2022/08/25 06:32:36;;;;;;;10.55;5.20;;;;;;;;;;4982315;28;20045;-67
2022/08/25 06:35:03;;;;;;;18.55;5.95;;;;;;;;;;4985021;28;20594;-68
2022/08/25 06:37:29;;;;;;;19.70;5.63;;;;;;;;;;4980566;28;20046;-69
2022/08/25 06:39:55;;;;;;;16.67;5.80;;;;;;;;;;4979704;28;20097;-67
2022/08/25 06:42:20;;;;;;;20.33;5.50;;;;;;;;;;4983899;28;20499;-67
2022/08/25 06:44:46;;;;;;;12.52;5.32;;;;;;;;;;4981123;28;20117;-67
2022/08/25 06:47:11;;;;;;;8.27;5.28;;;;;;;;;;4980475;28;20038;-68
2022/08/25 06:49:36;;;;;;;7.68;5.13;;;;;;;;;;4983017;28;20031;-69
2022/08/25 06:52:02;;;;;;;6.35;4.82;;;;;;;;;;4981705;28;20050;-68
2022/08/25 06:54:28;;;;;;;9.10;5.35;;;;;;;;;;4983033;28;20054;-69
2022/08/25 06:56:53;;;;;;;8.50;4.75;;;;;;;;;;4981579;28;21155;-68
2022/08/25 06:59:18;;;;;;;9.13;5.00;;;;;;;;;;4985651;28;20074;-68
2022/08/25 07:01:44;;;;;;;8.10;4.90;;;;;;;;;;4984397;28;20048;-69
2022/08/25 07:04:10;;;;;;;11.73;4.90;;;;;;;;;;4985225;28;20137;-69
2022/08/25 07:06:35;;;;;;;13.13;5.22;;;;;;;;;;4982084;28;20050;-69
2022/08/25 07:09:06;;;;;;;12.25;5.38;;;;;;;;;;4977938;28;20668;-68
2022/08/25 07:11:33;;;;;;;20.02;5.57;;;;;;;;;;4978824;28;20492;-68
2022/08/25 07:14:01;;;;;;;12.25;5.32;;;;;;;;;;4979221;28;20130;-67
2022/08/25 07:16:27;;;;;;;11.45;5.93;;;;;;;;;;4986937;28;20121;-68
2022/08/25 07:18:55;;;;;;;9.32;5.10;;;;;;;;;;4980539;28;20475;-68
2022/08/25 07:21:22;;;;;;;16.55;5.15;;;;;;;;;;4978541;28;20053;-67
2022/08/25 07:23:47;;;;;;;14.27;4.93;;;;;;;;;;4981337;28;20050;-67
2022/08/25 07:26:19;;;;;;;12.70;4.80;;;;;;;;;;4983327;28;20043;-69
2022/08/25 07:28:45;;;;;;;8.75;5.00;;;;;;;;;;4985748;28;20034;-70
2022/08/25 07:31:10;;;;;;;7.93;5.28;;;;;;;;;;4978739;28;20046;-67
2022/08/25 07:33:36;;;;;;;7.45;5.07;;;;;;;;;;4982423;28;20697;-68
2022/08/25 07:36:02;;;;;;;9.43;4.90;;;;;;;;;;4982983;28;20054;-66
2022/08/25 07:38:28;;;;;;;11.85;5.18;;;;;;;;;;4977001;28;20133;-66
2022/08/25 07:41:01;;;;;;;10.32;4.93;;;;;;;;;;4980449;28;20480;-66
2022/08/25 07:43:26;;;;;;;6.70;4.72;;;;;;;;;;4982554;28;20053;-67
2022/08/25 07:45:52;;;;;;;8.30;4.55;;;;;;;;;;4984342;28;20038;-66
2022/08/25 07:48:19;;;;;;;5.55;4.63;;;;;;;;;;4982480;28;20058;-65
2022/08/25 07:50:45;;;;;;;8.30;5.35;;;;;;;;;;4982682;28;20449;-66
2022/08/25 07:53:14;;;;;;;11.40;5.05;;;;;;;;;;4983696;28;20033;-67
2022/08/25 07:55:40;;;;;;;6.40;5.18;;;;;;;;;;4985778;28;20026;-66
2022/08/25 07:58:07;;;;;;;8.63;4.93;;;;;;;;;;4985553;28;20069;-65
2022/08/25 08:00:35;;;;;;;11.02;4.80;;;;;;;;;;4963642;28;20531;-67
2022/08/25 08:03:03;;;;;;;12.95;5.32;;;;;;;;;;4983782;28;20088;-66
2022/08/25 08:05:29;;;;;;;12.43;5.70;;;;;;;;;;4981661;28;20073;-67
2022/08/25 08:07:55;;;;;;;13.25;5.82;;;;;;;;;;4982124;28;20072;-65
2022/08/25 08:10:21;;;;;;;8.07;5.07;;;;;;;;;;4981655;28;20141;-66
2022/08/25 08:12:48;;;;;;;6.97;4.50;;;;;;;;;;4979692;28;20453;-64
2022/08/25 08:15:14;;;;;;;10.60;4.70;;;;;;;;;;4982721;28;20057;-67
2022/08/25 08:17:40;;;;;;;5.53;4.60;;;;;;;;;;4983837;28;20104;-66
2022/08/25 08:20:08;;;;;;;4.95;4.22;;;;;;;;;;4982172;28;20038;-65
2022/08/25 08:22:39;;;;;;;9.55;4.97;;;;;;;;;;4983487;28;20093;-65
2022/08/25 08:25:06;;;;;;;18.17;4.85;;;;;;;;;;4984126;28;20300;-66
2022/08/25 08:27:32;;;;;;;9.63;4.60;;;;;;;;;;4983385;28;20042;-65
2022/08/25 08:29:57;;;;;;;9.45;4.82;;;;;;;;;;4985193;28;20042;-65
2022/08/25 08:32:23;;;;;;;7.93;4.65;;;;;;;;;;4981472;28;20045;-66
2022/08/25 08:34:48;;;;;;;7.25;4.28;;;;;;;;;;4979529;28;20062;-66
2022/08/25 08:37:14;;;;;;;5.93;4.50;;;;;;;;;;4983445;28;20116;-66
2022/08/25 08:39:40;;;;;;;11.35;4.65;;;;;;;;;;4979012;28;20050;-67
2022/08/25 08:42:17;;;;;;;10.90;4.50;;;;;;;;;;4977823;28;20058;-66
2022/08/25 08:44:55;;;;;;;8.93;4.13;;;;;;;;;;4983068;28;20447;-65
2022/08/25 08:47:46;;;;;;;11.10;4.45;;;;;;;;;;4982205;28;20759;-65
2022/08/25 08:50:48;;;;;;;11.55;4.50;;;;;;;;;;4980323;28;20104;-65
2022/08/25 08:53:21;;;;;;;6.03;4.30;;;;;;;;;;4982984;28;20121;-65
2022/08/25 08:55:50;;;;;;;8.32;4.63;;;;;;;;;;4979840;28;20038;-65
2022/08/25 08:58:29;;;;;;;9.45;4.25;;;;;;;;;;4979339;28;20249;-64
2022/08/25 09:00:57;;;;;;;12.82;4.63;;;;;;;;;;4982381;28;20048;-65
2022/08/25 09:03:39;;;;;;;8.80;4.40;;;;;;;;;;4995498;28;20895;-66
2022/08/25 09:06:10;;;;;;;17.90;4.53;;;;;;;;;;4981812;28;20077;-64
2022/08/25 09:08:37;;;;;;;8.20;4.28;;;;;;;;;;4983684;28;20417;-66
2022/08/25 09:12:01;;;;;;;14.00;4.88;;;;;;;;;;4978384;28;20030;-66
2022/08/25 09:14:48;;;;;;;7.35;4.35;;;;;;;;;;4921398;29;20051;-67
2022/08/25 09:17:28;;;;;;;8.00;4.63;;;;;;;;;;4922265;29;20062;-66
2022/08/25 09:20:14;;;;;;;10.95;4.85;;;;;;;;;;4963937;28;20046;-66
2022/08/25 09:22:49;;;;;;;8.75;4.78;;;;;;;;;;4980922;28;20132;-66
2022/08/25 09:25:38;;;;;;;6.32;4.43;;;;;;;;;;4978362;28;20522;-66
2022/08/25 09:28:14;;;;;;;9.18;4.50;;;;;;;;;;4978002;28;20260;-66
2022/08/25 09:31:01;;;;;;;5.03;4.50;;;;;;;;;;4981872;28;20047;-65
2022/08/25 09:33:28;;;;;;;6.90;4.30;;;;;;;;;;4969527;28;20145;-65
2022/08/25 09:35:55;;;;;;;5.57;4.35;;;;;;;;;;4982551;28;20047;-65
2022/08/25 09:38:22;;;;;;;16.40;5.22;;;;;;;;;;4982994;28;20125;-66
2022/08/25 09:40:50;;;;;;;9.20;4.60;;;;;;;;;;4977588;28;20026;-65
2022/08/25 09:43:30;;;;;;;8.35;4.63;;;;;;;;;;4984017;28;20051;-65
2022/08/25 09:46:11;;;;;;;13.80;4.78;;;;;;;;;;4980361;28;20053;-65
2022/08/25 09:48:45;;;;;;;6.90;4.63;;;;;;;;;;4980827;28;20054;-64
2022/08/25 09:51:22;;;;;;;7.13;4.63;;;;;;;;;;4982146;28;20051;-64
2022/08/25 09:54:26;;;;;;;5.28;4.20;;;;;;;;;;4981591;28;20045;-65
2022/08/25 09:56:54;;;;;;;8.00;4.85;;;;;;;;;;4958323;28;21273;-65
2022/08/25 09:59:24;;;;;;;4.70;3.88;;;;;;;;;;4971617;28;20066;-65
2022/08/25 10:01:52;;;;;;;9.45;4.43;;;;;;;;;;4985569;28;20034;-66
2022/08/25 10:04:27;;;;;;;6.53;4.20;;;;;;;;;;4984684;28;20050;-66
2022/08/25 10:06:54;;;;;;;5.72;4.70;;;;;;;;;;4978662;28;20050;-66
2022/08/25 10:09:33;;;;;;;10.70;3.97;;;;;;;;;;4989985;28;20157;-65
2022/08/25 10:12:00;;;;;;;10.55;4.57;;;;;;;;;;4979048;28;20133;-63
2022/08/25 10:14:39;;;;;;;6.53;4.35;;;;;;;;;;4985473;28;20700;-66
2022/08/25 10:17:14;;;;;;;8.57;4.78;;;;;;;;;;4986511;28;20034;-65
2022/08/25 10:19:40;;;;;;;8.13;4.15;;;;;;;;;;4988579;28;20050;-66
2022/08/25 10:22:09;;;;;;;15.35;4.88;;;;;;;;;;4989099;28;20057;-66
2022/08/25 10:24:36;;;;;;;8.98;4.95;;;;;;;;;;4981119;28;20062;-66
2022/08/25 10:27:26;;;;;;;7.80;4.35;;;;;;;;;;4985628;28;20046;-67
2022/08/25 10:30:07;;;;;;;6.93;4.20;;;;;;;;;;4988535;28;21503;-67
2022/08/25 10:32:43;;;;;;;7.68;4.82;;;;;;;;;;4989209;28;20488;-67
2022/08/25 10:35:19;;;;;;;6.80;4.43;;;;;;;;;;4984080;28;20034;-66
2022/08/25 10:37:44;;;;;;;12.40;4.45;;;;;;;;;;4987544;28;20040;-69
2022/08/25 10:40:28;;;;;;;14.13;5.47;;;;;;;;;;4978085;28;20062;-69
2022/08/25 10:43:34;;;;;;;7.95;4.97;;;;;;;;;;4980595;28;20282;-69
2022/08/25 10:46:35;;;;;;;6.93;4.10;;;;;;;;;;4975970;28;20517;-68
2022/08/25 10:49:02;;;;;;;9.57;4.80;;;;;;;;;;4969475;28;20387;-68
2022/08/25 10:51:39;;;;;;;8.02;4.28;;;;;;;;;;4974892;28;20076;-69
2022/08/25 10:54:18;;;;;;;6.95;4.50;;;;;;;;;;4980430;28;20381;-69
2022/08/25 10:56:52;;;;;;;10.93;4.38;;;;;;;;;;4981553;28;20683;-67
2022/08/25 10:59:39;;;;;;;5.72;4.47;;;;;;;;;;4982653;28;20407;-70
2022/08/25 11:02:40;;;;;;;5.00;3.92;;;;;;;;;;4984332;28;20118;-69
2022/08/25 11:05:16;;;;;;;6.43;4.00;;;;;;;;;;4982717;28;20054;-69
2022/08/25 11:07:47;;;;;;;7.07;4.50;;;;;;;;;;4984934;28;20039;-69
2022/08/25 11:10:21;;;;;;;7.75;4.32;;;;;;;;;;4984691;28;20081;-69
2022/08/25 11:12:53;;;;;;;6.95;4.40;;;;;;;;;;4985386;28;20050;-70
2022/08/25 11:15:25;;;;;;;7.82;4.10;;;;;;;;;;4982680;28;20050;-68
2022/08/25 11:17:52;;;;;;;7.57;3.90;;;;;;;;;;4978965;28;20058;-68
2022/08/25 11:20:27;;;;;;;6.90;3.80;;;;;;;;;;4982009;28;20038;-68
2022/08/25 11:23:06;;;;;;;5.97;3.80;;;;;;;;;;4985589;28;20326;-68
2022/08/25 11:25:37;;;;;;;4.68;3.97;;;;;;;;;;4990629;28;20517;-69
2022/08/25 11:28:05;;;;;;;8.77;4.32;;;;;;;;;;4974114;28;20057;-62
2022/08/25 11:30:30;;;;;;;7.60;4.10;;;;;;;;;;4981651;28;20045;-65
2022/08/25 11:32:57;;;;;;;5.03;3.83;;;;;;;;;;4982797;28;20038;-65
2022/08/25 11:35:38;;;;;;;8.45;3.83;;;;;;;;;;4985435;28;20051;-66
2022/08/25 11:38:28;;;;;;;5.88;4.10;;;;;;;;;;4979008;28;20030;-68
2022/08/25 11:41:12;;;;;;;5.80;3.58;;;;;;;;;;4980330;28;20104;-64
2022/08/25 11:44:00;;;;;;;6.13;3.83;;;;;;;;;;4984575;28;20153;-67
2022/08/25 11:46:38;;;;;;;5.00;4.05;;;;;;;;;;4979536;28;20161;-65
2022/08/25 11:49:23;;;;;;;7.03;4.13;;;;;;;;;;4983327;28;20427;-64
2022/08/25 11:51:49;;;;;;;5.63;3.92;;;;;;;;;;4980111;28;20431;-64
2022/08/25 11:54:26;;;;;;;5.57;3.78;;;;;;;;;;4979535;28;20532;-64
2022/08/25 11:57:04;;;;;;;5.50;4.15;;;;;;;;;;4980969;28;20046;-64
2022/08/25 11:59:48;;;;;;;6.50;4.03;;;;;;;;;;4983117;28;20081;-64
2022/08/25 12:02:32;;;;;;;6.03;4.20;;;;;;;;;;4981616;28;20030;-65
2022/08/25 12:04:57;;;;;;;7.10;4.20;;;;;;;;;;4982702;28;20117;-65
2022/08/25 12:07:26;;;;;;;7.57;4.20;;;;;;;;;;4976401;28;20565;-66
2022/08/25 12:09:54;;;;;;;8.50;4.20;;;;;;;;;;4976487;28;20503;-65
2022/08/25 12:12:36;;;;;;;4.18;3.78;;;;;;;;;;4987599;28;20069;-66
2022/08/25 12:15:22;;;;;;;6.18;4.35;;;;;;;;;;4983886;28;20562;-65
2022/08/25 12:18:08;;;;;;;4.45;4.03;;;;;;;;;;4980124;28;20101;-65
2022/08/25 12:20:55;;;;;;;6.10;3.95;;;;;;;;;;4983488;28;20042;-65
2022/08/25 12:24:02;;;;;;;4.57;4.00;;;;;;;;;;4969883;28;20054;-64
2022/08/25 12:26:42;;;;;;;4.50;4.10;;;;;;;;;;4979047;28;20054;-65
2022/08/25 12:29:46;;;;;;;7.53;4.03;;;;;;;;;;4984099;28;20072;-64
2022/08/25 12:32:26;;;;;;;6.97;4.13;;;;;;;;;;4980335;28;20034;-65
2022/08/25 12:35:13;;;;;;;4.75;4.18;;;;;;;;;;4984449;28;20038;-64
2022/08/25 12:38:06;;;;;;;4.95;3.83;;;;;;;;;;4982875;28;20400;-64
2022/08/25 12:40:38;;;;;;;5.05;4.28;;;;;;;;;;4974566;28;20045;-65
2022/08/25 12:43:12;;;;;;;5.15;4.10;;;;;;;;;;4975535;28;20046;-65
2022/08/25 12:45:41;;;;;;;7.97;4.18;;;;;;;;;;4976453;28;20686;-63
2022/08/25 12:48:25;;;;;;;6.55;4.30;;;;;;;;;;4962200;28;20479;-64
2022/08/25 12:50:56;;;;;;;5.82;3.95;;;;;;;;;;4982698;28;20046;-61
2022/08/25 12:53:33;;;;;;;5.03;3.72;;;;;;;;;;4977636;28;20062;-64
2022/08/25 12:56:06;;;;;;;4.47;4.07;;;;;;;;;;4975555;28;20104;-63
2022/08/25 12:58:46;;;;;;;8.38;4.35;;;;;;;;;;4974860;28;20033;-65
2022/08/25 13:01:17;;;;;;;6.65;4.10;;;;;;;;;;4978152;28;20051;-62
2022/08/25 13:04:25;;;;;;;10.48;4.60;;;;;;;;;;4984035;28;20567;-62
2022/08/25 13:07:28;;;;;;;4.60;4.15;;;;;;;;;;4973121;28;20641;-63
2022/08/25 13:10:22;;;;;;;6.97;4.22;;;;;;;;;;4980392;28;20081;-62
2022/08/25 13:13:14;;;;;;;5.40;4.20;;;;;;;;;;4977187;28;20043;-63
2022/08/25 13:15:56;;;;;;;4.97;4.05;;;;;;;;;;4976084;28;20110;-63
2022/08/25 13:18:27;;;;;;;5.97;4.00;;;;;;;;;;4977819;28;20069;-62
2022/08/25 13:21:11;;;;;;;;;;;;;;;;;;4977205;28;20634;-63
2022/08/25 13:23:41;;;;;;;5.00;4.30;;;;;;;;;;4972409;28;19922;-63
2022/08/25 13:26:06;;;;;;;7.53;4.05;;;;;;;;;;4970303;28;20440;-63
2022/08/25 13:28:39;;;;;;;4.47;3.80;;;;;;;;;;4972560;28;20117;-62
2022/08/25 13:31:14;;;;;;;4.18;3.78;;;;;;;;;;4979075;28;20459;-62
2022/08/25 13:33:50;;;;;;;4.60;4.15;;;;;;;;;;4985269;28;20050;-62
2022/08/25 13:39:13;;;;;;;4.30;3.78;;;;;;;;;;4979343;28;20057;-63
2022/08/25 13:41:46;;;;;;;6.43;3.90;;;;;;;;;;4987010;28;20061;-64
2022/08/25 13:44:13;;;;;;;5.15;4.30;;;;;;;;;;4980186;28;20114;-65
2022/08/25 13:46:38;;;;;;;5.10;4.20;;;;;;;;;;4985259;28;20136;-66
2022/08/25 13:49:06;;;;;;;4.25;3.85;;;;;;;;;;4985709;28;20121;-65
2022/08/25 13:51:31;;;;;;;4.97;4.18;;;;;;;;;;4983578;28;20053;-63
2022/08/25 13:54:00;;;;;;;8.80;4.35;;;;;;;;;;4987734;28;20041;-63
2022/08/25 13:56:37;;;;;;;5.97;3.80;;;;;;;;;;4985403;28;20042;-65
2022/08/25 13:59:05;;;;;;;8.75;4.20;;;;;;;;;;4985597;28;20030;-63
2022/08/25 14:01:43;;;;;;;5.03;3.97;;;;;;;;;;4986130;28;20377;-65
2022/08/25 14:04:26;;;;;;;7.43;4.10;;;;;;;;;;4981526;28;20173;-65
2022/08/25 14:07:25;;;;;;;5.50;3.58;;;;;;;;;;4977167;28;20046;-64
2022/08/25 14:10:08;;;;;;;4.68;3.95;;;;;;;;;;4956347;28;20050;-64
2022/08/25 14:12:45;;;;;;;3.90;3.60;;;;;;;;;;4979482;28;20050;-65
2022/08/25 14:15:17;;;;;;;4.85;3.17;;;;;;;;;;4981239;28;20604;-64
2022/08/25 14:18:24;;;;;;;3.80;3.35;;;;;;;;;;4976894;28;20385;-65
2022/08/25 14:20:52;;;;;;;6.03;3.20;;;;;;;;;;4983099;28;20051;-64
2022/08/25 14:23:24;;;;;;;6.20;3.22;;;;;;;;;;4980243;28;20640;-65
2022/08/25 14:25:51;;;;;;;;;;;;;;;;;;4985667;28;20117;-64
2022/08/25 14:28:20;;;;;;;4.40;3.38;;;;;;;;;;4989756;28;19925;-64
2022/08/25 14:30:52;;;;;;;6.57;3.20;;;;;;;;;;4983901;28;20062;-70
2022/08/25 14:33:20;;;;;;;;;;;;;;;;;;4983031;28;20104;-66
2022/08/25 14:35:50;;;;;;;4.20;3.33;;;;;;;;;;4982615;28;19918;-66
2022/08/25 14:38:16;;;;;;;3.65;3.00;;;;;;;;;;4981821;28;20403;-64
2022/08/25 14:40:43;;;;;;;6.82;3.00;;;;;;;;;;4979626;28;20033;-64
2022/08/25 14:43:09;;;;;;;4.32;3.38;;;;;;;;;;4975488;28;20055;-64
2022/08/25 14:45:38;;;;;;;3.90;3.03;;;;;;;;;;4977807;28;20581;-66
2022/08/25 14:48:08;;;;;;;6.03;3.67;;;;;;;;;;4972233;28;20109;-65
2022/08/25 14:50:34;;;;;;;4.00;3.30;;;;;;;;;;4977883;28;20377;-63
2022/08/25 14:53:00;;;;;;;7.07;3.30;;;;;;;;;;4980112;28;20123;-64
2022/08/25 14:55:26;;;;;;;3.60;3.30;;;;;;;;;;4977694;28;20041;-64
2022/08/25 14:57:51;;;;;;;5.25;3.30;;;;;;;;;;4975475;28;20046;-65
2022/08/25 15:00:17;;;;;;;4.35;3.20;;;;;;;;;;4975711;28;20369;-64
2022/08/25 15:02:43;;;;;;;3.67;3.10;;;;;;;;;;4979234;28;20124;-64
2022/08/25 15:05:11;;;;;;;4.28;3.13;;;;;;;;;;4975837;28;20148;-64
2022/08/25 15:10:21;;;;;;;3.45;3.15;;;;;;;;;;4977347;28;20519;-65
2022/08/25 15:12:46;;;;;;;10.60;3.17;;;;;;;;;;4985187;28;20054;-65
2022/08/25 15:15:11;;;;;;;3.53;3.10;;;;;;;;;;4988607;28;20725;-64
2022/08/25 15:17:39;;;;;;;3.47;2.95;;;;;;;;;;4981932;28;20150;-66